Sierra, Nevada
Current Conditions -  °F | °C
As of 1:35 AM on Friday 31 Oct 2014 (Local Time) from KRTS Reporting Station
Few Clouds Few Clouds  
Wind Chill: 14°   Ceiling: Unl
Heat Index: 14°   Visibility: 10mi
Dew Point: -5°   Wind: 5mph
Humidity: 27%   Direction: 220°SW
Pressure: 29.95"   Gusts: NA
Location:  39.7378°N, 119.889°W
Report Text: KRTS 310835Z AUTO 22004KT 10SM FEW120 14/M05 A2995 RMK AO2
Loading
Personal Weather Stations






























Interactive Weather Map
Tropical Storm Tracking
New forecast layout! Learn more

10-Day Weather Forecast

Advertisements
Track Severe Weather on mobile